createdAt,value
2023-01-29T00:00:20.215Z,77.96
2023-01-29T00:00:52.464Z,77.62
2023-01-29T00:01:24.539Z,77.51
2023-01-29T00:01:56.742Z,77.62
2023-01-29T00:02:28.674Z,77.62
2023-01-29T00:03:00.640Z,77.42
2023-01-29T00:03:33.535Z,77.62
2023-01-29T00:04:05.521Z,77.75
2023-01-29T00:04:37.408Z,78.01
2023-01-29T00:05:26.123Z,78.00
2023-01-29T00:05:59.895Z,77.68
2023-01-29T00:06:32.521Z,77.43
2023-01-29T00:07:04.417Z,77.33
2023-01-29T00:07:36.337Z,77.35
2023-01-29T00:08:08.237Z,77.35
2023-01-29T00:08:40.125Z,77.35
2023-01-29T00:09:13.554Z,77.28
2023-01-29T00:09:45.439Z,77.49
2023-01-29T00:10:18.120Z,77.49
2023-01-29T00:10:50.207Z,77.46
2023-01-29T00:11:24.097Z,77.47
2023-01-29T00:11:56.077Z,77.86
2023-01-29T00:12:28.129Z,78.06
2023-01-29T00:13:00.109Z,77.94
2023-01-29T00:13:32.519Z,77.91
2023-01-29T00:14:05.762Z,77.67
2023-01-29T00:14:37.627Z,77.43
2023-01-29T00:15:09.652Z,77.61
2023-01-29T00:15:41.577Z,77.34
2023-01-29T00:16:13.629Z,77.67
2023-01-29T00:16:45.882Z,78.05
2023-01-29T00:17:17.883Z,78.15
2023-01-29T00:17:49.894Z,78.28
2023-01-29T00:18:22.078Z,78.92
2023-01-29T00:18:53.974Z,78.82
2023-01-29T00:19:25.865Z,78.95
2023-01-29T00:19:57.724Z,78.95
2023-01-29T00:20:30.304Z,79.10
2023-01-29T00:21:02.305Z,79.09
2023-01-29T00:21:34.695Z,79.04
2023-01-29T00:22:06.957Z,78.95
2023-01-29T00:22:39.005Z,78.86
2023-01-29T00:23:10.924Z,78.72
2023-01-29T00:23:43.696Z,79.07
2023-01-29T00:24:15.743Z,79.05
2023-01-29T00:24:47.658Z,78.97
2023-01-29T00:25:19.543Z,79.50
2023-01-29T00:25:51.441Z,79.47
2023-01-29T00:26:23.528Z,79.29
2023-01-29T00:26:55.471Z,79.46
2023-01-29T00:27:27.676Z,79.09
2023-01-29T00:27:59.670Z,78.89
2023-01-29T00:28:31.950Z,78.86
2023-01-29T00:29:03.840Z,78.55
2023-01-29T00:29:35.829Z,78.36
2023-01-29T00:30:16.591Z,78.48
2023-01-29T00:30:48.799Z,78.55
2023-01-29T00:31:23.763Z,78.57
2023-01-29T00:31:55.882Z,78.70
2023-01-29T00:32:28.125Z,78.79
2023-01-29T00:32:59.993Z,79.05
2023-01-29T00:33:32.548Z,78.85
2023-01-29T00:34:04.435Z,78.33
2023-01-29T00:34:36.342Z,77.99
2023-01-29T00:35:09.241Z,78.06
2023-01-29T00:35:42.043Z,77.98
2023-01-29T00:36:15.630Z,77.92
2023-01-29T00:36:47.538Z,77.82
2023-01-29T00:37:19.406Z,77.82
2023-01-29T00:37:52.353Z,77.96
2023-01-29T00:38:24.214Z,78.09
2023-01-29T00:38:58.884Z,77.77
2023-01-29T00:39:47.395Z,78.00
2023-01-29T00:40:20.080Z,77.92
2023-01-29T00:41:10.630Z,78.32
2023-01-29T00:42:01.324Z,78.89
2023-01-29T00:42:51.739Z,78.39
2023-01-29T00:43:43.374Z,77.64
2023-01-29T00:44:38.343Z,77.66
2023-01-29T00:45:11.728Z,78.40
2023-01-29T00:45:43.670Z,78.17
2023-01-29T00:46:16.044Z,77.79
2023-01-29T00:46:48.134Z,77.68
2023-01-29T00:47:35.852Z,77.63
2023-01-29T00:48:07.864Z,77.91
2023-01-29T00:48:40.060Z,78.11
2023-01-29T00:49:12.260Z,78.31
2023-01-29T00:49:44.133Z,78.21
2023-01-29T00:50:16.775Z,78.06
2023-01-29T00:50:48.994Z,78.25
2023-01-29T00:51:20.924Z,78.51
2023-01-29T00:52:11.609Z,78.59
2023-01-29T00:52:43.641Z,78.63
2023-01-29T00:53:15.510Z,78.62
2023-01-29T00:53:48.033Z,78.56
2023-01-29T00:54:19.927Z,78.73
2023-01-29T00:54:53.066Z,78.95
2023-01-29T00:55:25.003Z,79.39
2023-01-29T00:55:56.915Z,79.25
2023-01-29T00:56:30.363Z,78.84
2023-01-29T00:57:03.936Z,78.76
2023-01-29T00:57:38.320Z,78.69
2023-01-29T00:58:10.492Z,78.78
2023-01-29T00:58:42.374Z,79.34
2023-01-29T00:59:14.697Z,79.58
2023-01-29T00:59:46.752Z,79.11
2023-01-29T01:00:19.504Z,79.21
2023-01-29T01:00:51.870Z,79.64
2023-01-29T01:01:42.833Z,79.41
2023-01-29T01:02:34.963Z,79.18
2023-01-29T01:03:10.747Z,79.61
2023-01-29T01:03:42.884Z,79.94
2023-01-29T01:04:15.384Z,80.13
2023-01-29T01:04:47.430Z,79.94
2023-01-29T01:05:19.783Z,79.58
2023-01-29T01:06:02.113Z,79.49
2023-01-29T01:06:34.202Z,79.52
2023-01-29T01:07:06.945Z,80.05
2023-01-29T01:07:38.854Z,80.01
2023-01-29T01:08:31.154Z,79.82
2023-01-29T01:09:22.067Z,79.64
2023-01-29T01:10:13.246Z,79.46
2023-01-29T01:10:45.223Z,79.96
2023-01-29T01:11:17.671Z,79.52
2023-01-29T01:11:49.838Z,78.92
2023-01-29T01:12:22.315Z,78.90
2023-01-29T01:13:03.141Z,79.20
2023-01-29T01:13:35.191Z,79.39
2023-01-29T01:14:07.234Z,79.07
2023-01-29T01:14:43.097Z,79.88
2023-01-29T01:15:15.366Z,79.90
2023-01-29T01:15:47.388Z,79.56
2023-01-29T01:16:20.692Z,79.25
2023-01-29T01:16:52.850Z,79.24
2023-01-29T01:17:25.124Z,79.37
2023-01-29T01:17:59.342Z,79.21
2023-01-29T01:18:31.758Z,78.86
2023-01-29T01:19:04.925Z,78.47
2023-01-29T01:19:37.147Z,78.59
2023-01-29T01:20:10.133Z,79.01
2023-01-29T01:20:42.614Z,79.60
2023-01-29T01:21:14.537Z,79.46
2023-01-29T01:21:48.353Z,79.59
2023-01-29T01:22:20.599Z,79.65
2023-01-29T01:22:54.681Z,79.76
2023-01-29T01:23:28.011Z,80.09
2023-01-29T01:24:00.207Z,80.63
2023-01-29T01:24:32.709Z,81.02
2023-01-29T01:25:05.125Z,81.14
2023-01-29T01:25:37.044Z,80.85
2023-01-29T01:26:10.967Z,80.25
2023-01-29T01:26:43.351Z,80.02
2023-01-29T01:27:15.351Z,79.90
2023-01-29T01:27:47.722Z,79.71
2023-01-29T01:28:19.611Z,79.50
2023-01-29T01:28:52.014Z,79.76
2023-01-29T01:29:24.586Z,80.08
2023-01-29T01:29:56.571Z,80.01
2023-01-29T01:30:28.825Z,80.17
2023-01-29T01:31:11.822Z,79.97
2023-01-29T01:31:44.071Z,79.61
2023-01-29T01:32:16.053Z,79.53
2023-01-29T01:32:49.282Z,79.43
2023-01-29T01:33:21.475Z,79.25
2023-01-29T01:33:55.618Z,79.38
2023-01-29T01:34:27.578Z,79.58
2023-01-29T01:34:59.454Z,80.15
2023-01-29T01:35:31.396Z,80.48
2023-01-29T01:36:03.569Z,80.65
2023-01-29T01:36:35.463Z,80.51
2023-01-29T01:37:07.891Z,80.22
2023-01-29T01:37:39.824Z,80.15
2023-01-29T01:38:11.943Z,80.29
2023-01-29T01:38:46.616Z,80.52
2023-01-29T01:39:18.482Z,80.56
2023-01-29T01:39:50.569Z,80.45
2023-01-29T01:40:25.077Z,80.41
2023-01-29T01:40:56.983Z,80.25
2023-01-29T01:41:31.274Z,80.53
2023-01-29T01:42:03.209Z,80.23
2023-01-29T01:42:35.378Z,79.88
2023-01-29T01:43:10.029Z,79.71
2023-01-29T01:43:50.669Z,79.49
2023-01-29T01:44:53.520Z,79.34
2023-01-29T01:45:36.333Z,79.45
2023-01-29T01:46:09.513Z,79.73
2023-01-29T01:46:41.453Z,79.97
2023-01-29T01:47:14.107Z,80.28
2023-01-29T01:47:51.812Z,80.54
2023-01-29T01:48:27.315Z,80.59
2023-01-29T01:49:15.870Z,80.76
2023-01-29T01:49:48.339Z,80.74
2023-01-29T01:50:46.667Z,80.82
2023-01-29T01:51:20.733Z,80.43
2023-01-29T01:51:53.141Z,80.38
2023-01-29T01:52:25.148Z,80.66
2023-01-29T01:53:02.783Z,80.91
2023-01-29T01:53:43.341Z,80.92
2023-01-29T01:54:28.721Z,81.07
2023-01-29T01:55:01.100Z,81.07
2023-01-29T01:55:35.526Z,81.06
2023-01-29T01:56:12.798Z,81.08
2023-01-29T01:56:50.160Z,80.95
2023-01-29T01:57:25.423Z,81.35
2023-01-29T01:58:05.862Z,81.33
2023-01-29T01:58:43.674Z,81.39
2023-01-29T01:59:19.085Z,81.55
2023-01-29T02:00:10.131Z,81.42
2023-01-29T02:00:45.327Z,81.61
2023-01-29T02:01:19.137Z,81.46
2023-01-29T02:01:54.352Z,81.29
2023-01-29T02:02:46.277Z,81.32
2023-01-29T02:03:38.514Z,81.70
2023-01-29T02:04:36.017Z,82.06
2023-01-29T02:05:27.663Z,82.42
2023-01-29T02:06:19.020Z,82.55
2023-01-29T02:07:12.635Z,81.95
2023-01-29T02:08:06.292Z,81.65
2023-01-29T02:09:14.287Z,81.56
2023-01-29T02:09:56.945Z,81.43
2023-01-29T02:10:37.738Z,81.63
2023-01-29T02:11:09.866Z,81.37
2023-01-29T02:11:41.801Z,81.64
2023-01-29T02:12:16.104Z,82.23
2023-01-29T02:12:48.027Z,82.25
2023-01-29T02:13:21.805Z,82.35
2023-01-29T02:13:54.044Z,81.92
2023-01-29T02:14:32.043Z,81.66
2023-01-29T02:15:07.076Z,81.64
2023-01-29T02:15:41.911Z,81.97
2023-01-29T02:16:13.829Z,81.97
2023-01-29T02:16:46.558Z,81.72
2023-01-29T02:17:20.727Z,81.48
2023-01-29T02:17:52.669Z,81.38
2023-01-29T02:18:24.663Z,81.42
2023-01-29T02:18:56.766Z,81.61
2023-01-29T02:19:55.915Z,81.70
2023-01-29T02:20:33.498Z,81.83
2023-01-29T02:21:52.659Z,81.63
2023-01-29T02:22:36.918Z,81.32
2023-01-29T02:23:17.026Z,81.08
2023-01-29T02:24:08.754Z,81.63
2023-01-29T02:25:17.671Z,81.93
2023-01-29T02:26:01.567Z,81.00
2023-01-29T02:27:04.652Z,81.04
2023-01-29T02:28:14.380Z,80.71
2023-01-29T02:28:53.458Z,79.69
2023-01-29T02:29:54.719Z,79.47
2023-01-29T02:30:36.410Z,79.71
2023-01-29T02:31:29.110Z,79.42
2023-01-29T02:32:06.976Z,79.93
2023-01-29T02:32:58.636Z,80.38
2023-01-29T02:33:42.876Z,80.49
2023-01-29T02:34:14.748Z,80.21
2023-01-29T02:35:09.837Z,80.16
2023-01-29T02:35:50.467Z,79.85
2023-01-29T02:36:51.436Z,79.74
2023-01-29T02:37:34.962Z,79.56
2023-01-29T02:38:09.839Z,79.79
2023-01-29T02:38:56.300Z,80.47
2023-01-29T02:39:46.982Z,80.73
2023-01-29T02:40:25.762Z,80.70
2023-01-29T02:41:12.912Z,81.23
2023-01-29T02:41:56.826Z,81.56
2023-01-29T02:42:35.915Z,81.35
2023-01-29T02:43:28.164Z,80.87
2023-01-29T02:44:06.446Z,81.34
2023-01-29T02:44:49.968Z,81.16
2023-01-29T02:45:35.367Z,81.86
2023-01-29T02:46:16.923Z,81.67
2023-01-29T02:47:03.688Z,81.15
2023-01-29T02:47:41.022Z,81.17
2023-01-29T02:48:18.425Z,80.85
2023-01-29T02:49:01.861Z,80.46
2023-01-29T02:49:44.154Z,80.38
2023-01-29T02:50:45.336Z,80.87
2023-01-29T02:51:29.995Z,81.26
2023-01-29T02:52:23.229Z,81.29
2023-01-29T02:53:09.168Z,80.87
2023-01-29T02:54:01.786Z,80.83
2023-01-29T02:54:55.578Z,81.09
2023-01-29T02:55:33.153Z,81.00
2023-01-29T02:56:19.461Z,80.89
2023-01-29T02:56:56.456Z,80.99
2023-01-29T02:57:37.395Z,81.29
2023-01-29T02:58:20.298Z,81.18
2023-01-29T02:59:01.973Z,81.50
2023-01-29T02:59:46.099Z,81.32
2023-01-29T03:00:22.760Z,81.28
2023-01-29T03:00:59.309Z,81.66
2023-01-29T03:01:48.275Z,81.87
2023-01-29T03:02:35.247Z,81.91
2023-01-29T03:03:20.925Z,82.03
2023-01-29T03:04:01.005Z,82.04
2023-01-29T03:04:42.553Z,81.73
2023-01-29T03:05:25.505Z,81.97
2023-01-29T03:06:22.234Z,81.87
2023-01-29T03:07:03.370Z,81.65
2023-01-29T03:07:47.034Z,81.23
2023-01-29T03:08:36.925Z,81.23
2023-01-29T03:09:22.946Z,81.28
2023-01-29T03:09:56.790Z,81.06
2023-01-29T03:10:42.204Z,80.77
2023-01-29T03:11:15.846Z,81.30
2023-01-29T03:11:54.698Z,81.80
2023-01-29T03:12:35.835Z,81.74
2023-01-29T03:13:15.253Z,81.51
2023-01-29T03:14:00.102Z,81.80
2023-01-29T03:14:56.534Z,81.85
2023-01-29T03:15:39.022Z,81.67
2023-01-29T03:16:16.490Z,81.66
2023-01-29T03:16:51.797Z,81.55
2023-01-29T03:17:29.777Z,81.45
2023-01-29T03:18:11.765Z,81.50
2023-01-29T03:18:50.903Z,81.36
2023-01-29T03:19:36.215Z,81.22
2023-01-29T03:20:16.556Z,80.90
2023-01-29T03:20:58.513Z,80.87
2023-01-29T03:21:51.353Z,80.52
2023-01-29T03:22:24.243Z,80.94
2023-01-29T03:23:01.816Z,80.99
2023-01-29T03:23:55.807Z,81.34
2023-01-29T03:25:09.170Z,81.39
2023-01-29T03:26:02.760Z,81.58
2023-01-29T03:26:54.014Z,81.15
2023-01-29T03:28:11.109Z,81.62
2023-01-29T03:29:05.005Z,81.23
2023-01-29T03:29:58.773Z,81.14
2023-01-29T03:30:55.375Z,81.43
2023-01-29T03:31:48.663Z,81.95
2023-01-29T03:32:24.711Z,81.88
2023-01-29T03:32:59.154Z,81.70
2023-01-29T03:33:36.117Z,81.71
2023-01-29T03:34:16.330Z,81.91
2023-01-29T03:34:54.160Z,82.15
2023-01-29T03:35:36.515Z,81.96
2023-01-29T03:36:14.958Z,81.93
2023-01-29T03:36:58.750Z,81.52
2023-01-29T03:37:43.080Z,81.75
2023-01-29T03:38:16.528Z,81.59
2023-01-29T03:38:48.820Z,81.35
2023-01-29T03:39:20.853Z,81.09
2023-01-29T03:39:54.635Z,81.67
2023-01-29T03:40:28.623Z,82.39
2023-01-29T03:41:12.199Z,82.81
2023-01-29T03:41:58.869Z,82.70
2023-01-29T03:42:53.199Z,82.40
2023-01-29T03:43:33.035Z,81.90
2023-01-29T03:44:24.987Z,82.12
2023-01-29T03:45:08.614Z,82.08
2023-01-29T03:45:56.005Z,81.74
2023-01-29T03:46:49.072Z,82.01
2023-01-29T03:47:30.657Z,82.21
2023-01-29T03:48:33.222Z,82.04
2023-01-29T03:49:08.511Z,81.71
2023-01-29T03:49:54.101Z,81.99
2023-01-29T03:50:44.951Z,81.91
2023-01-29T03:51:23.542Z,82.17
2023-01-29T03:52:35.092Z,81.91
2023-01-29T03:53:18.664Z,81.82
2023-01-29T03:54:21.147Z,81.19
2023-01-29T03:55:11.789Z,81.17
2023-01-29T03:55:59.692Z,81.47
2023-01-29T03:56:41.817Z,81.54
2023-01-29T03:57:38.540Z,81.58
2023-01-29T03:58:40.500Z,81.55
2023-01-29T03:59:31.847Z,81.63
2023-01-29T04:00:11.455Z,81.61
2023-01-29T04:01:11.195Z,82.14
2023-01-29T04:01:56.352Z,82.32
2023-01-29T04:02:42.693Z,81.73
2023-01-29T04:03:40.156Z,82.07
2023-01-29T04:04:23.360Z,81.94
2023-01-29T04:05:05.857Z,81.72
2023-01-29T04:05:58.637Z,81.45
2023-01-29T04:06:35.993Z,81.40
2023-01-29T04:07:17.688Z,81.67
2023-01-29T04:07:57.151Z,81.62
2023-01-29T04:08:31.471Z,81.55
2023-01-29T04:09:12.519Z,81.71
2023-01-29T04:10:02.150Z,81.56
2023-01-29T04:10:41.436Z,81.52
2023-01-29T04:11:18.506Z,82.01
2023-01-29T04:11:57.445Z,82.23
2023-01-29T04:12:39.191Z,82.06
2023-01-29T04:13:14.181Z,81.88
2023-01-29T04:13:47.235Z,81.59
2023-01-29T04:14:21.437Z,81.66
2023-01-29T04:14:57.158Z,81.39
2023-01-29T04:15:34.222Z,81.69
2023-01-29T04:16:10.442Z,81.95
2023-01-29T04:16:55.030Z,82.13
2023-01-29T04:17:34.701Z,82.29
2023-01-29T04:18:09.931Z,82.29
2023-01-29T04:18:48.341Z,81.95
2023-01-29T04:19:21.042Z,81.70
2023-01-29T04:19:53.869Z,81.86
2023-01-29T04:20:26.057Z,81.97
2023-01-29T04:20:59.788Z,81.69
2023-01-29T04:21:33.043Z,81.88
2023-01-29T04:22:15.416Z,82.29
2023-01-29T04:22:49.997Z,81.95
2023-01-29T04:23:26.384Z,81.73
2023-01-29T04:23:58.887Z,81.62
2023-01-29T04:24:31.538Z,81.42
2023-01-29T04:25:16.080Z,81.13
2023-01-29T04:25:58.456Z,81.07
2023-01-29T04:26:46.832Z,80.59
2023-01-29T04:27:29.262Z,80.59
2023-01-29T04:28:11.420Z,80.94
2023-01-29T04:28:47.531Z,80.87
2023-01-29T04:29:51.407Z,80.72
2023-01-29T04:30:33.506Z,80.57
2023-01-29T04:31:10.819Z,80.73
2023-01-29T04:32:21.827Z,80.45
2023-01-29T04:33:02.235Z,80.24
2023-01-29T04:33:46.456Z,80.54
2023-01-29T04:35:04.346Z,80.66
2023-01-29T04:36:27.396Z,81.00
2023-01-29T04:37:16.867Z,81.77
2023-01-29T04:38:22.045Z,81.53
2023-01-29T04:39:12.047Z,81.46
2023-01-29T04:39:53.396Z,81.87
2023-01-29T04:40:46.969Z,81.89
2023-01-29T04:41:21.298Z,81.27
2023-01-29T04:42:09.487Z,81.59
2023-01-29T04:42:50.203Z,81.84
2023-01-29T04:43:41.605Z,82.07
2023-01-29T04:44:22.934Z,81.77
2023-01-29T04:45:20.391Z,81.91
2023-01-29T04:46:17.540Z,81.60
2023-01-29T04:47:10.758Z,81.99
2023-01-29T04:48:04.381Z,82.20
2023-01-29T04:48:43.869Z,82.03
2023-01-29T04:49:20.016Z,82.00
2023-01-29T04:49:57.599Z,81.64
2023-01-29T04:50:40.243Z,81.62
2023-01-29T04:51:30.523Z,81.63
2023-01-29T04:52:34.433Z,81.33
2023-01-29T04:53:18.750Z,81.01
2023-01-29T04:54:04.928Z,81.08
2023-01-29T04:54:51.938Z,81.09
2023-01-29T04:55:42.913Z,81.18
2023-01-29T04:56:51.437Z,81.06
2023-01-29T04:57:33.967Z,81.64
2023-01-29T04:58:14.414Z,81.91
2023-01-29T04:58:59.568Z,81.91
2023-01-29T04:59:36.883Z,81.77
2023-01-29T05:00:19.743Z,81.68
2023-01-29T05:00:54.421Z,81.08
2023-01-29T05:01:30.270Z,80.58
2023-01-29T05:02:04.356Z,80.61
2023-01-29T05:02:41.731Z,80.86
2023-01-29T05:03:15.414Z,80.85
2023-01-29T05:03:51.122Z,80.52
2023-01-29T05:04:24.630Z,80.55
2023-01-29T05:04:58.790Z,80.54
2023-01-29T05:05:30.943Z,80.17
2023-01-29T05:06:04.217Z,80.17
2023-01-29T05:06:38.144Z,80.09
2023-01-29T05:07:14.049Z,80.10
2023-01-29T05:07:47.705Z,79.90
2023-01-29T05:08:23.074Z,79.94
2023-01-29T05:08:56.850Z,80.35
2023-01-29T05:09:29.408Z,80.64
2023-01-29T05:10:01.444Z,80.86
2023-01-29T05:10:35.161Z,80.94
2023-01-29T05:11:07.495Z,80.91
2023-01-29T05:11:40.031Z,80.81
2023-01-29T05:12:14.494Z,80.31
2023-01-29T05:12:53.007Z,80.43
2023-01-29T05:13:27.148Z,80.58
2023-01-29T05:14:02.427Z,80.62
2023-01-29T05:14:35.568Z,80.17
2023-01-29T05:15:16.173Z,80.48
2023-01-29T05:15:54.184Z,80.76
2023-01-29T05:16:42.064Z,80.76
2023-01-29T05:17:19.588Z,80.43
2023-01-29T05:17:53.801Z,80.11
2023-01-29T05:18:25.756Z,80.40
2023-01-29T05:18:57.648Z,80.49
2023-01-29T05:19:29.544Z,80.11
2023-01-29T05:20:01.479Z,80.07
2023-01-29T05:20:36.523Z,80.04
2023-01-29T05:21:10.057Z,80.25
2023-01-29T05:21:45.588Z,80.15
2023-01-29T05:22:22.651Z,79.90
2023-01-29T05:22:54.693Z,79.35
2023-01-29T05:23:27.006Z,79.86
2023-01-29T05:24:12.389Z,80.54
2023-01-29T05:24:44.927Z,80.81
2023-01-29T05:25:26.502Z,80.93
2023-01-29T05:25:58.507Z,80.73
2023-01-29T05:26:49.116Z,80.51
2023-01-29T05:27:48.044Z,80.06
2023-01-29T05:28:19.919Z,80.22
2023-01-29T05:28:51.835Z,81.31
2023-01-29T05:29:23.905Z,81.63
2023-01-29T05:29:57.581Z,81.58
2023-01-29T05:30:29.782Z,81.45
2023-01-29T05:31:01.746Z,81.47
2023-01-29T05:31:33.779Z,81.35
2023-01-29T05:32:05.914Z,81.36
2023-01-29T05:32:39.737Z,81.36
2023-01-29T05:33:20.679Z,81.24
2023-01-29T05:33:52.623Z,80.99
2023-01-29T05:34:24.615Z,81.19
2023-01-29T05:34:56.525Z,81.57
2023-01-29T05:35:29.537Z,81.87
2023-01-29T05:36:01.492Z,81.92
2023-01-29T05:36:33.393Z,82.06
2023-01-29T05:37:05.378Z,82.09
2023-01-29T05:37:37.462Z,82.29
2023-01-29T05:38:10.027Z,81.86
2023-01-29T05:38:41.890Z,81.40
2023-01-29T05:39:13.819Z,81.20
2023-01-29T05:39:45.720Z,80.87
2023-01-29T05:40:18.102Z,80.44
2023-01-29T05:40:50.459Z,80.24
2023-01-29T05:41:22.380Z,80.01
2023-01-29T05:41:54.355Z,80.03
2023-01-29T05:42:26.245Z,80.06
2023-01-29T05:42:58.263Z,80.22
2023-01-29T05:43:30.500Z,80.43
2023-01-29T05:44:02.455Z,80.41
2023-01-29T05:44:34.342Z,80.52
2023-01-29T05:45:06.876Z,80.57
2023-01-29T05:45:38.907Z,80.42
2023-01-29T05:46:10.825Z,80.15
2023-01-29T05:46:43.849Z,80.28
2023-01-29T05:47:19.749Z,80.39
2023-01-29T05:47:55.223Z,80.27
2023-01-29T05:48:29.062Z,80.31
2023-01-29T05:49:01.294Z,80.39
2023-01-29T05:49:33.249Z,79.95
2023-01-29T05:50:06.421Z,79.97
2023-01-29T05:50:38.333Z,80.44
2023-01-29T05:51:10.342Z,80.67
2023-01-29T05:51:42.235Z,80.66
2023-01-29T05:52:14.141Z,80.86
2023-01-29T05:52:46.067Z,80.84
2023-01-29T05:53:18.132Z,80.65
2023-01-29T05:53:50.426Z,80.81
2023-01-29T05:54:22.841Z,81.04
2023-01-29T05:54:54.846Z,80.97
2023-01-29T05:55:29.548Z,81.02
2023-01-29T05:56:02.792Z,80.89
2023-01-29T05:56:34.670Z,80.75
2023-01-29T05:57:06.530Z,80.72
2023-01-29T05:57:40.604Z,80.17
2023-01-29T05:58:13.381Z,79.70
2023-01-29T05:58:45.313Z,79.43
2023-01-29T05:59:17.208Z,79.63
2023-01-29T05:59:49.559Z,79.65
2023-01-29T06:00:22.340Z,79.80
2023-01-29T06:00:54.712Z,80.07
2023-01-29T06:01:26.940Z,80.58
2023-01-29T06:01:58.905Z,80.59
2023-01-29T06:02:31.711Z,80.47
2023-01-29T06:03:03.724Z,80.28
2023-01-29T06:03:35.687Z,80.27
2023-01-29T06:04:07.586Z,79.82
2023-01-29T06:04:39.475Z,79.79
2023-01-29T06:05:11.353Z,80.01
2023-01-29T06:05:43.262Z,80.15
2023-01-29T06:06:15.932Z,80.54
2023-01-29T06:06:47.838Z,80.63
2023-01-29T06:07:19.895Z,80.65
2023-01-29T06:07:51.943Z,80.92
2023-01-29T06:08:23.825Z,81.54
2023-01-29T06:08:56.329Z,81.63
2023-01-29T06:09:28.229Z,81.32
2023-01-29T06:10:00.191Z,81.10
2023-01-29T06:10:32.079Z,80.97
2023-01-29T06:11:04.721Z,81.03
2023-01-29T06:11:36.998Z,81.23
2023-01-29T06:12:09.792Z,81.25
2023-01-29T06:12:42.666Z,81.30
2023-01-29T06:13:14.583Z,81.05
2023-01-29T06:13:46.526Z,80.95
2023-01-29T06:14:18.442Z,80.75
2023-01-29T06:14:50.793Z,80.59
2023-01-29T06:15:22.823Z,80.59
2023-01-29T06:15:54.765Z,80.69
2023-01-29T06:16:26.854Z,80.60
2023-01-29T06:16:59.464Z,80.50
2023-01-29T06:17:31.355Z,80.48
2023-01-29T06:18:03.295Z,80.64
2023-01-29T06:18:36.585Z,81.24
2023-01-29T06:19:08.473Z,81.25
2023-01-29T06:19:40.432Z,81.36
2023-01-29T06:20:13.656Z,81.40
2023-01-29T06:20:45.590Z,81.06
2023-01-29T06:21:19.940Z,80.82
2023-01-29T06:21:52.071Z,80.77
2023-01-29T06:22:24.298Z,80.65
2023-01-29T06:22:56.175Z,83.11
2023-01-29T06:23:28.071Z,83.80
2023-01-29T06:24:00.004Z,82.91
2023-01-29T06:24:32.890Z,82.20
2023-01-29T06:25:05.342Z,81.35
2023-01-29T06:25:37.245Z,81.02
2023-01-29T06:26:12.192Z,80.55
2023-01-29T06:26:44.489Z,80.42
2023-01-29T06:27:16.401Z,80.60
2023-01-29T06:27:51.368Z,80.56
2023-01-29T06:28:23.237Z,80.70
2023-01-29T06:28:55.227Z,80.51
2023-01-29T06:29:27.166Z,80.93
2023-01-29T06:29:59.048Z,81.24
2023-01-29T06:30:31.945Z,85.94
2023-01-29T06:31:23.358Z,84.16
2023-01-29T06:31:57.711Z,83.58
2023-01-29T06:32:29.752Z,81.69
2023-01-29T06:33:02.774Z,81.25
2023-01-29T06:33:35.046Z,81.19
2023-01-29T06:34:07.961Z,80.83
2023-01-29T06:34:39.900Z,80.84
2023-01-29T06:35:11.866Z,80.89
2023-01-29T06:35:43.753Z,80.74
2023-01-29T06:36:15.834Z,80.72
2023-01-29T06:36:47.707Z,80.64
2023-01-29T06:37:19.704Z,80.71
2023-01-29T06:37:51.664Z,80.77
2023-01-29T06:38:24.472Z,80.79
2023-01-29T06:38:56.385Z,80.84
2023-01-29T06:39:28.269Z,80.62
2023-01-29T06:40:00.184Z,80.64
2023-01-29T06:40:32.114Z,80.50
2023-01-29T06:41:12.319Z,80.85
2023-01-29T06:41:45.531Z,81.17
2023-01-29T06:42:17.483Z,81.69
2023-01-29T06:42:49.391Z,82.11
2023-01-29T06:43:22.195Z,82.26
2023-01-29T06:43:54.404Z,82.28
2023-01-29T06:44:26.522Z,82.10
2023-01-29T06:44:58.430Z,81.57
2023-01-29T06:45:30.418Z,81.15
2023-01-29T06:46:02.470Z,81.08
2023-01-29T06:46:34.775Z,81.08
2023-01-29T06:47:06.710Z,81.50
2023-01-29T06:47:38.639Z,81.85
2023-01-29T06:48:10.532Z,81.88
2023-01-29T06:48:43.061Z,83.42
2023-01-29T06:49:15.427Z,82.35
2023-01-29T06:49:47.339Z,81.48
2023-01-29T06:50:19.529Z,81.53
2023-01-29T06:50:51.993Z,81.83
2023-01-29T06:51:24.613Z,82.00
2023-01-29T06:51:56.521Z,82.24
2023-01-29T06:52:29.142Z,82.05
2023-01-29T06:53:01.026Z,82.21
2023-01-29T06:53:34.641Z,82.59
2023-01-29T06:54:08.350Z,82.39
2023-01-29T06:54:40.716Z,82.22
2023-01-29T06:55:12.779Z,82.04
2023-01-29T06:55:51.650Z,81.66
2023-01-29T06:56:24.441Z,81.33
2023-01-29T06:56:56.451Z,81.18
2023-01-29T06:57:30.135Z,81.28
2023-01-29T06:58:09.755Z,80.94
2023-01-29T06:58:43.555Z,81.18
2023-01-29T06:59:15.597Z,81.58
2023-01-29T06:59:47.905Z,81.19
2023-01-29T07:00:20.548Z,81.52
2023-01-29T07:00:52.729Z,81.34
2023-01-29T07:01:35.711Z,81.02
2023-01-29T07:02:07.872Z,80.52
2023-01-29T07:02:39.813Z,80.57
2023-01-29T07:03:12.274Z,80.53
2023-01-29T07:03:44.488Z,80.39
2023-01-29T07:04:16.475Z,80.13
2023-01-29T07:04:48.719Z,80.16
2023-01-29T07:05:20.643Z,80.16
2023-01-29T07:05:53.846Z,79.78
2023-01-29T07:06:29.210Z,79.53
2023-01-29T07:07:01.208Z,79.59
2023-01-29T07:07:35.862Z,79.84
2023-01-29T07:08:09.564Z,79.74
2023-01-29T07:08:41.574Z,79.41
2023-01-29T07:09:16.332Z,79.23
2023-01-29T07:09:48.693Z,79.32
2023-01-29T07:10:21.510Z,80.01
2023-01-29T07:10:53.500Z,80.33
2023-01-29T07:11:25.574Z,80.72
2023-01-29T07:11:57.482Z,80.24
2023-01-29T07:12:29.479Z,80.11
2023-01-29T07:13:01.830Z,80.12
2023-01-29T07:13:34.028Z,79.91
2023-01-29T07:14:06.440Z,79.86
2023-01-29T07:14:38.526Z,79.82
2023-01-29T07:15:12.680Z,79.51
2023-01-29T07:15:44.681Z,79.29
2023-01-29T07:16:16.635Z,79.27
2023-01-29T07:16:48.549Z,79.03
2023-01-29T07:17:21.295Z,79.00
2023-01-29T07:18:05.374Z,79.05
2023-01-29T07:18:37.514Z,79.57
2023-01-29T07:19:09.439Z,79.90
2023-01-29T07:19:41.459Z,79.80
2023-01-29T07:20:13.883Z,79.51
2023-01-29T07:20:46.039Z,79.17
2023-01-29T07:21:18.194Z,78.97
2023-01-29T07:21:50.311Z,79.05
2023-01-29T07:22:22.283Z,79.08
2023-01-29T07:22:54.541Z,79.22
2023-01-29T07:23:26.464Z,79.26
2023-01-29T07:23:58.461Z,79.21
2023-01-29T07:24:30.491Z,79.21
2023-01-29T07:25:02.531Z,79.26
2023-01-29T07:25:35.126Z,79.31
2023-01-29T07:26:07.383Z,79.21
2023-01-29T07:26:39.308Z,78.62
2023-01-29T07:27:11.317Z,78.93
2023-01-29T07:27:43.490Z,78.74
2023-01-29T07:28:17.064Z,78.93
2023-01-29T07:28:49.502Z,79.27
2023-01-29T07:29:21.391Z,78.97
2023-01-29T07:29:53.427Z,78.98
2023-01-29T07:30:25.530Z,79.05
2023-01-29T07:30:59.018Z,79.44
2023-01-29T07:31:31.346Z,79.71
2023-01-29T07:32:03.569Z,79.92
2023-01-29T07:32:35.498Z,79.92
2023-01-29T07:33:08.914Z,79.65
2023-01-29T07:33:43.243Z,79.47
2023-01-29T07:34:15.214Z,78.93
2023-01-29T07:34:47.217Z,79.00
2023-01-29T07:35:19.314Z,78.91
2023-01-29T07:35:51.490Z,78.93
2023-01-29T07:36:24.254Z,78.90
2023-01-29T07:36:57.122Z,78.60
2023-01-29T07:37:28.992Z,78.54
2023-01-29T07:38:00.853Z,78.92
2023-01-29T07:38:32.756Z,78.89
2023-01-29T07:39:05.223Z,78.81
2023-01-29T07:39:37.063Z,78.78
2023-01-29T07:40:11.306Z,78.95
2023-01-29T07:40:43.280Z,79.12
2023-01-29T07:41:15.231Z,78.91
2023-01-29T07:41:48.473Z,78.19
2023-01-29T07:42:20.492Z,78.06
2023-01-29T07:42:58.439Z,78.37
2023-01-29T07:43:30.760Z,78.75
2023-01-29T07:44:02.671Z,78.43
2023-01-29T07:44:34.581Z,78.41
2023-01-29T07:45:07.377Z,78.34
2023-01-29T07:45:40.351Z,78.03
2023-01-29T07:46:12.445Z,77.82
2023-01-29T07:46:44.396Z,77.87
2023-01-29T07:47:17.371Z,77.68
2023-01-29T07:47:53.221Z,77.53
2023-01-29T07:48:25.169Z,77.51
2023-01-29T07:48:58.601Z,77.21
2023-01-29T07:49:30.873Z,77.22
2023-01-29T07:50:04.220Z,76.94
2023-01-29T07:50:36.368Z,76.83
2023-01-29T07:51:08.271Z,76.91
2023-01-29T07:51:40.210Z,76.81
2023-01-29T07:52:12.243Z,76.62
2023-01-29T07:52:44.571Z,76.51
2023-01-29T07:53:16.522Z,76.41
2023-01-29T07:53:48.688Z,75.96
2023-01-29T07:54:20.671Z,75.89
2023-01-29T07:54:52.615Z,76.06
2023-01-29T07:55:24.725Z,76.08
2023-01-29T07:55:57.403Z,76.00
2023-01-29T07:56:29.508Z,76.58
2023-01-29T07:57:01.391Z,77.18
2023-01-29T07:57:33.284Z,77.29
2023-01-29T07:58:05.556Z,77.04
2023-01-29T07:58:37.458Z,76.61
2023-01-29T07:59:09.395Z,76.64